17:51
Airports
History
Links
Donate
Help keep this website running!
PayPal
Bitcoin
Information on this page is community maintained and may be outdated or inaccurate and is intended for reference only or PC simulator navigating!
Always use approved charts for navigating.
60A
Brundidge Municipal
Brundidge Municipal (60A)
Brundidge, Alabama, United States (36010)
(U)
Lat/Lng:31° 44' 0.58" N / 85° 48' 16.8" W
31.733494 / -85.804668
Elevation:476'ft 145mMSL
ID / ICAO:60A
Runways:1
Longest:(05-23) 917.3m 3,010ft Asphalt
Distance To
Airport ID:
Nearby VORs <50NM
Nearby NDBs
Nearby WeatherUpdated 03-24-17 16:53 GMT
Nearby weather at KTOI, Troy Muni located 15.0 nautical miles from 60A
Altimeter: 30.36
Visibility: 10.0 statute miles
Wind: 11 knots (160°)
Temp: 21°c 70°f
Humidity: 56.4%

METAR: KTOI 241653Z AUTO 16011KT 10SM OVC070 21/12 A3036 RMK AO2 SLP276 T02110122

(Powered by phpweather)
Runway 05 / 23
Dimensions:917.3 x 24.4m 3010' x 80'ft
Surface:Asphalt
Edge Lights:Medium intensity
Runway 05 [A]Runway 23 [B]
Heading:049°TH 229°TH
Lat:
Lng:
31° 43' 51.06"N
85° 48' 30.14"W
31° 44' 10.1"N
85° 48' 3.46"W
Google Map
Nearby Airports
(C) Troy Muni 15.0 NM
KTOI (WX) NW 305°
(U) Clayton Muni 21.4 NM
11A ENE 61°
(U) Blackwell Field 23.5 NM
71J SSE 152°
(U) Frank Sikes 26.9 NM
04A W 270°
(U) Carl Folsom 28.0 NM
14J SW 216°
(U) Franklin Field 29.9 NM
07A N 359°
(C) Enterprise Muni 30.5 NM
KEDN S 190°
VFR Chart
Flight Planning at SkyVector.com